Hannibal Center, New York
Current Conditions -  °F | °C
As of 11:01 PM on Saturday 25 Oct 2014 (Local Time) from KFZY Reporting Station
Thunderstorm Thunderstorm  
Wind Chill: 55°   Ceiling: 4500
Heat Index: 55°   Visibility: 10mi
Dew Point: 46°   Wind: 12mph
Humidity: 72%   Direction: 310°NW
Pressure: 29.56"   Gusts: NA
Location:  43.3091°N, 76.5484°W
Report Text: KFZY 260301Z AUTO 31010KT 10SM VCTS FEW026 OVC045 13/08 A2956 RMK AO2 LTG DSNT S AND SW T01280078
Loading
Personal Weather Stations






























Interactive Weather Map
Tropical Storm Tracking
New forecast layout! Learn more

10-Day Weather Forecast

Advertisements
Track Severe Weather on mobile